Time;durP1;ratioP1;P1;durP2;ratioP2;P2;SDS_P1;SDS_P2;PMS_P1;PMS_P2;Temp;Humidity;BMP_temperature;BMP_pressure;BME280_temperature;BME280_humidity;BME280_pressure;Samples;Min_cycle;Max_cycle;Signal;HPM_P1;HPM_P2
2022/08/02 00:08:03;;;;;;;1.00;0.50;;;19.10;99.90;;;;;;6744761;88;20230;-78
2022/08/02 00:18:03;;;;;;;0.82;0.45;;;18.90;99.90;;;;;;6745700;88;20186;-78
2022/08/02 00:28:04;;;;;;;0.85;0.50;;;18.80;99.90;;;;;;6748751;88;20206;-78
2022/08/02 00:38:05;;;;;;;1.10;0.60;;;19.00;99.90;;;;;;6745883;88;20737;-78
2022/08/02 00:48:07;;;;;;;1.17;0.60;;;18.80;99.90;;;;;;6746790;88;21072;-77
2022/08/02 00:58:08;;;;;;;1.02;0.50;;;18.60;99.90;;;;;;6746604;88;20326;-77
2022/08/02 01:08:09;;;;;;;1.25;0.55;;;18.60;99.90;;;;;;6748513;88;20179;-78
2022/08/02 01:18:20;;;;;;;1.52;0.77;;;18.60;99.90;;;;;;6750034;88;20193;-77
2022/08/02 01:28:41;;;;;;;1.25;0.65;;;18.40;99.90;;;;;;6741985;88;20185;-78
2022/08/02 01:38:47;;;;;;;1.85;0.62;;;18.40;99.90;;;;;;6748302;88;20212;-77
2022/08/02 01:48:49;;;;;;;1.08;0.52;;;18.40;99.90;;;;;;6748859;88;20187;-77
2022/08/02 01:58:52;;;;;;;1.10;0.52;;;18.00;99.90;;;;;;6745164;88;20187;-77
2022/08/02 02:08:52;;;;;;;1.10;0.65;;;17.70;99.90;;;;;;6737352;88;20280;-77
2022/08/02 02:18:54;;;;;;;1.27;0.60;;;17.50;99.90;;;;;;6739779;88;20755;-77
2022/08/02 02:28:56;;;;;;;1.92;0.93;;;17.30;99.90;;;;;;6746655;88;20241;-77
2022/08/02 02:39:00;;;;;;;0.95;0.52;;;17.20;99.90;;;;;;6744337;88;20353;-78
2022/08/02 02:49:02;;;;;;;1.30;0.80;;;17.20;99.90;;;;;;6741702;88;20188;-77
2022/08/02 02:59:03;;;;;;;1.20;0.70;;;17.20;99.90;;;;;;6742741;88;20338;-78
2022/08/02 03:09:04;;;;;;;1.48;0.77;;;17.00;99.90;;;;;;6744020;88;20783;-77
2022/08/02 03:19:05;;;;;;;1.08;0.50;;;16.90;99.90;;;;;;6744620;88;20181;-77
2022/08/02 03:29:06;;;;;;;1.77;0.93;;;16.90;99.90;;;;;;6750131;88;20349;-77
2022/08/02 03:39:07;;;;;;;1.10;0.77;;;16.90;99.90;;;;;;6740376;88;20398;-77
2022/08/02 03:49:09;;;;;;;1.08;0.70;;;16.80;99.90;;;;;;6747578;88;20207;-77
2022/08/02 03:59:11;;;;;;;1.27;0.73;;;16.80;99.90;;;;;;6747103;88;20193;-78
2022/08/02 04:09:12;;;;;;;1.23;0.68;;;16.70;99.90;;;;;;6744586;88;20652;-77
2022/08/02 04:19:20;;;;;;;1.45;0.80;;;16.50;99.90;;;;;;6745356;88;20220;-77
2022/08/02 04:29:22;;;;;;;1.30;0.80;;;16.50;99.90;;;;;;6748205;88;20188;-77
2022/08/02 04:39:23;;;;;;;1.77;0.80;;;16.50;99.90;;;;;;6746272;88;20642;-77
2022/08/02 04:49:24;;;;;;;1.30;0.90;;;16.40;99.90;;;;;;6746181;77;20172;-76
2022/08/02 04:59:24;;;;;;;3.12;0.80;;;16.50;99.90;;;;;;6722444;88;20633;-76
2022/08/02 05:09:25;;;;;;;1.70;1.08;;;16.70;99.90;;;;;;6724211;88;20192;-76
2022/08/02 05:19:25;;;;;;;1.95;1.15;;;16.80;99.90;;;;;;6715098;88;20182;-76
2022/08/02 05:29:26;;;;;;;2.03;1.30;;;16.90;99.90;;;;;;6718952;88;20212;-76
2022/08/02 05:39:26;;;;;;;1.45;1.10;;;17.30;99.90;;;;;;6717578;88;20275;-77
2022/08/02 05:49:27;;;;;;;1.98;0.95;;;17.60;99.90;;;;;;6716208;88;20611;-76
2022/08/02 05:59:49;;;;;;;2.22;1.40;;;17.80;99.90;;;;;;6715476;88;20703;-76
2022/08/02 06:09:50;;;;;;;1.73;0.95;;;18.10;99.90;;;;;;6713846;88;20177;-77
2022/08/02 06:19:59;;;;;;;2.47;0.95;;;18.60;99.90;;;;;;6714621;88;20298;-74
2022/08/02 06:30:02;;;;;;;2.03;1.10;;;19.10;99.90;;;;;;6713855;88;20700;-77
2022/08/02 06:40:28;;;;;;;1.33;0.77;;;19.20;99.90;;;;;;6714370;88;20179;-75
2022/08/02 06:50:29;;;;;;;1.40;0.70;;;19.70;99.90;;;;;;6719434;88;20240;-74
2022/08/02 07:00:30;;;;;;;1.12;0.70;;;20.70;99.90;;;;;;6717274;88;20670;-75
2022/08/02 07:10:30;;;;;;;1.35;0.80;;;21.10;99.90;;;;;;6718009;88;20349;-75
2022/08/02 07:20:31;;;;;;;1.83;0.70;;;21.50;99.90;;;;;;6720116;88;20205;-75
2022/08/02 07:30:32;;;;;;;1.10;0.70;;;21.80;99.90;;;;;;6715720;88;20681;-75
2022/08/02 07:40:33;;;;;;;1.40;0.70;;;22.60;99.90;;;;;;6717960;88;20181;-75
2022/08/02 07:50:34;;;;;;;0.90;0.50;;;23.00;99.90;;;;;;6726383;88;20264;-75
2022/08/02 08:00:34;;;;;;;1.10;0.60;;;23.60;99.90;;;;;;6721140;88;20268;-75
2022/08/02 08:10:35;;;;;;;1.12;0.60;;;24.30;99.90;;;;;;6718414;88;20560;-75
2022/08/02 08:20:35;;;;;;;0.98;0.60;;;25.30;99.90;;;;;;6718448;88;20366;-75
2022/08/02 08:30:36;;;;;;;1.40;0.70;;;26.10;99.90;;;;;;6721532;88;20248;-75
2022/08/02 08:40:37;;;;;;;1.37;0.70;;;26.60;99.50;;;;;;6723611;88;20631;-75
2022/08/02 08:50:44;;;;;;;1.00;0.77;;;26.40;99.00;;;;;;6716695;88;20571;-75
2022/08/02 09:00:46;;;;;;;1.05;0.65;;;27.40;98.00;;;;;;6714976;88;20684;-76
2022/08/02 09:10:47;;;;;;;1.07;0.57;;;28.30;97.80;;;;;;6717772;88;20203;-76
2022/08/02 09:20:56;;;;;;;1.12;0.73;;;28.80;95.20;;;;;;6717221;88;20177;-76
2022/08/02 09:31:06;;;;;;;0.90;0.68;;;28.20;95.10;;;;;;6716701;88;20198;-76
2022/08/02 09:41:20;;;;;;;1.10;0.65;;;29.30;93.30;;;;;;6716808;88;20243;-76
2022/08/02 09:51:23;;;;;;;0.93;0.65;;;28.10;93.70;;;;;;6718423;88;20239;-76
2022/08/02 10:01:32;;;;;;;0.98;0.50;;;29.20;92.40;;;;;;6715256;88;20174;-76
2022/08/02 10:11:34;;;;;;;1.10;0.60;;;30.50;89.70;;;;;;6718380;88;20169;-76
2022/08/02 10:21:51;;;;;;;1.00;0.60;;;31.20;90.30;;;;;;6720687;88;20201;-76
2022/08/02 10:32:05;;;;;;;1.10;0.65;;;32.00;86.80;;;;;;6714970;88;20229;-75
2022/08/02 10:42:06;;;;;;;1.12;0.68;;;31.30;87.10;;;;;;6709930;88;20576;-77
2022/08/02 10:52:08;;;;;;;1.00;0.60;;;31.70;85.20;;;;;;6762175;76;20188;-78
2022/08/02 11:02:08;;;;;;;0.93;0.50;;;31.20;83.80;;;;;;6746530;88;20531;-79
2022/08/02 11:12:12;;;;;;;1.20;0.73;;;30.90;83.30;;;;;;6738542;88;20323;-78
2022/08/02 11:22:18;;;;;;;1.20;0.80;;;31.20;84.00;;;;;;6737938;88;20258;-79
2022/08/02 11:32:23;;;;;;;0.98;0.55;;;31.60;82.30;;;;;;6735669;88;21016;-77
2022/08/02 11:42:34;;;;;;;0.90;0.50;;;32.60;78.80;;;;;;6739960;88;20206;-80
2022/08/02 11:52:36;;;;;;;0.80;0.60;;;32.40;77.80;;;;;;6739810;88;20234;-79
2022/08/02 12:02:37;;;;;;;1.02;0.70;;;33.00;76.30;;;;;;6728346;88;20767;-80
2022/08/02 12:12:55;;;;;;;;;;;33.00;75.70;;;;;;6740824;88;20192;-79
2022/08/02 12:22:56;;;;;;;1.10;0.60;;;32.80;76.80;;;;;;6719054;88;20151;-79
2022/08/02 12:33:09;;;;;;;0.90;0.60;;;33.10;74.10;;;;;;6723424;88;20239;-79
2022/08/02 12:43:20;;;;;;;0.90;0.60;;;33.50;74.40;;;;;;6723087;88;20194;-78
2022/08/02 12:53:20;;;;;;;0.90;0.57;;;33.70;72.80;;;;;;6730504;88;20338;-78
2022/08/02 13:03:21;;;;;;;1.02;0.70;;;34.10;72.30;;;;;;6727813;88;20244;-78
2022/08/02 13:13:21;;;;;;;1.30;0.85;;;34.00;72.20;;;;;;6730632;88;20213;-79
2022/08/02 13:23:23;;;;;;;1.37;0.70;;;33.90;72.60;;;;;;6732291;88;20201;-78
2022/08/02 13:33:23;;;;;;;1.00;0.60;;;33.50;72.20;;;;;;6750099;88;20275;-79
2022/08/02 13:43:25;;;;;;;0.90;0.60;;;33.30;72.60;;;;;;6735617;88;20552;-79
2022/08/02 13:53:25;;;;;;;1.10;0.62;;;34.20;71.90;;;;;;6733615;88;20335;-79
2022/08/02 14:03:26;;;;;;;0.98;0.60;;;35.60;70.80;;;;;;6736058;88;20753;-79
2022/08/02 14:13:27;;;;;;;0.98;0.60;;;34.70;70.90;;;;;;6734246;88;20809;-79
2022/08/02 14:23:29;;;;;;;1.00;0.60;;;35.50;69.50;;;;;;6749925;88;20203;-79
2022/08/02 14:33:29;;;;;;;0.90;0.68;;;34.60;69.70;;;;;;6729782;88;20181;-77
2022/08/02 14:53:49;;;;;;;1.17;0.68;;;35.90;69.10;;;;;;6731895;88;20189;-77
2022/08/02 15:03:50;;;;;;;0.90;0.60;;;34.30;68.90;;;;;;6732042;88;20218;-78
2022/08/02 15:13:51;;;;;;;0.90;0.60;;;34.60;69.20;;;;;;6732972;88;20206;-79
2022/08/02 15:23:51;;;;;;;0.90;0.60;;;33.60;68.90;;;;;;6718752;88;20332;-79
2022/08/02 15:33:52;;;;;;;1.00;0.60;;;34.00;70.00;;;;;;6722446;88;20202;-79
2022/08/02 15:43:52;;;;;;;1.23;0.70;;;33.90;70.50;;;;;;6726725;88;20271;-78
2022/08/02 15:53:53;;;;;;;0.80;0.50;;;34.20;70.50;;;;;;6736674;88;20333;-80
2022/08/02 16:03:53;;;;;;;0.90;0.60;;;34.90;70.20;;;;;;6727853;88;20230;-78
2022/08/02 16:13:54;;;;;;;0.80;0.60;;;34.60;70.20;;;;;;6722641;88;20223;-77
2022/08/02 16:23:56;;;;;;;1.20;0.87;;;35.10;70.10;;;;;;6734052;88;20321;-80
2022/08/02 16:33:56;;;;;;;1.00;0.70;;;34.70;69.80;;;;;;6734758;88;20686;-78
2022/08/02 16:43:57;;;;;;;0.90;0.60;;;34.90;69.60;;;;;;6739507;88;20270;-78
2022/08/02 16:53:57;;;;;;;0.95;0.60;;;33.80;69.90;;;;;;6727558;88;20659;-77
2022/08/02 17:03:58;;;;;;;0.90;0.52;;;33.40;70.40;;;;;;6737473;88;20212;-78
2022/08/02 17:13:59;;;;;;;0.70;0.50;;;33.10;70.80;;;;;;6734795;88;20327;-78
2022/08/02 17:23:59;;;;;;;0.90;0.55;;;32.60;70.40;;;;;;6732770;88;20218;-77
2022/08/02 17:34:00;;;;;;;0.93;0.57;;;33.10;71.30;;;;;;6735853;88;20290;-77
2022/08/02 17:44:00;;;;;;;1.15;0.70;;;33.20;70.60;;;;;;6737499;88;20436;-77
2022/08/02 17:54:01;;;;;;;0.90;0.50;;;32.80;71.40;;;;;;6734140;88;20184;-77
2022/08/02 18:04:01;;;;;;;1.02;0.57;;;31.70;72.70;;;;;;6733385;88;20189;-77
2022/08/02 18:14:02;;;;;;;0.98;0.60;;;31.30;73.60;;;;;;6731451;88;20193;-77
2022/08/02 18:24:03;;;;;;;0.80;0.50;;;31.20;74.50;;;;;;6733269;88;20204;-77
2022/08/02 18:34:04;;;;;;;0.90;0.53;;;30.70;75.00;;;;;;6729991;88;20224;-77
2022/08/02 18:44:05;;;;;;;1.10;0.70;;;30.10;75.90;;;;;;6732148;88;20322;-77
2022/08/02 18:54:05;;;;;;;1.33;0.67;;;29.80;77.30;;;;;;6730290;88;20361;-77
2022/08/02 19:04:06;;;;;;;1.45;0.75;;;29.50;77.70;;;;;;6733098;88;20258;-78
2022/08/02 19:14:07;;;;;;;1.15;0.68;;;28.90;82.30;;;;;;6736741;88;20205;-78
2022/08/02 19:24:07;;;;;;;1.00;0.65;;;28.20;85.00;;;;;;6727009;88;20295;-77
2022/08/02 19:34:08;;;;;;;1.17;0.73;;;27.60;85.50;;;;;;6733159;88;20189;-78
2022/08/02 19:44:08;;;;;;;1.17;0.60;;;27.30;84.70;;;;;;6732301;88;20232;-78
2022/08/02 19:54:09;;;;;;;1.37;0.70;;;27.10;86.80;;;;;;6736911;88;20211;-78
2022/08/02 20:04:09;;;;;;;1.45;0.98;;;26.70;86.90;;;;;;6738674;88;20291;-77
2022/08/02 20:14:10;;;;;;;1.77;0.90;;;26.40;90.50;;;;;;6734208;88;20185;-78
2022/08/02 20:24:11;;;;;;;1.55;0.95;;;26.00;91.30;;;;;;6730035;88;20177;-76
2022/08/02 20:34:11;;;;;;;1.12;0.65;;;25.80;92.30;;;;;;6730391;88;20207;-75
2022/08/02 20:44:15;;;;;;;1.37;0.75;;;25.70;93.20;;;;;;6730817;88;20210;-75
2022/08/02 20:54:16;;;;;;;2.03;0.82;;;25.60;92.10;;;;;;6727948;88;20224;-75
2022/08/02 21:04:17;;;;;;;2.05;0.85;;;25.60;92.20;;;;;;6732671;88;20238;-75
2022/08/02 21:14:17;;;;;;;1.20;0.70;;;25.30;92.90;;;;;;6732688;88;20221;-75
2022/08/02 21:24:18;;;;;;;1.90;0.88;;;25.10;94.00;;;;;;6728295;88;20204;-76
2022/08/02 21:34:18;;;;;;;1.40;0.80;;;24.90;94.70;;;;;;6729304;88;21078;-75
2022/08/02 21:44:21;;;;;;;1.05;0.73;;;24.70;95.30;;;;;;6731223;88;20367;-76
2022/08/02 21:54:22;;;;;;;1.27;0.63;;;24.50;96.30;;;;;;6728420;88;20204;-76
2022/08/02 22:04:22;;;;;;;1.67;1.00;;;24.10;97.70;;;;;;6735869;88;20195;-76
2022/08/02 22:14:23;;;;;;;1.20;0.80;;;23.80;99.20;;;;;;6731830;88;20241;-76
2022/08/02 22:24:23;;;;;;;2.28;0.80;;;23.70;99.90;;;;;;6729090;88;20222;-76
2022/08/02 22:34:24;;;;;;;1.35;0.65;;;23.50;99.90;;;;;;6730108;88;20186;-75
2022/08/02 22:44:25;;;;;;;1.37;0.73;;;23.30;99.90;;;;;;6726467;77;20236;-74
2022/08/02 22:54:25;;;;;;;1.85;0.80;;;23.10;99.90;;;;;;6721971;88;20266;-73
2022/08/02 23:04:25;;;;;;;1.00;0.60;;;23.10;99.90;;;;;;6724365;88;20181;-74
2022/08/02 23:14:26;;;;;;;1.40;0.65;;;22.90;99.90;;;;;;6725161;88;20308;-74
2022/08/02 23:24:27;;;;;;;1.25;0.70;;;22.80;99.90;;;;;;6721213;88;20192;-74
2022/08/02 23:34:27;;;;;;;1.23;0.60;;;22.60;99.90;;;;;;6721645;88;20198;-74
2022/08/02 23:44:28;;;;;;;2.28;0.90;;;22.50;99.90;;;;;;6719738;88;20348;-74
2022/08/02 23:54:29;;;;;;;1.48;0.80;;;22.30;99.90;;;;;;6715886;88;20194;-73
